createdAt,value
2022-07-28T00:03:49.206Z,9.68
2022-07-28T00:18:48.884Z,9.68
2022-07-28T00:33:48.460Z,9.46
2022-07-28T00:48:49.390Z,9.73
2022-07-28T01:03:49.117Z,10.18
2022-07-28T01:18:49.277Z,9.74
2022-07-28T01:33:49.003Z,9.3
2022-07-28T01:48:50.601Z,10.43
2022-07-28T02:03:49.455Z,10.14
2022-07-28T02:18:49.084Z,10.06
2022-07-28T02:33:58.271Z,10.36
2022-07-28T02:48:49.243Z,10.12
2022-07-28T03:03:48.400Z,11.22
2022-07-28T03:18:48.882Z,10.12
2022-07-28T03:33:48.931Z,11.2
2022-07-28T03:48:49.198Z,10.16
2022-07-28T04:03:48.772Z,10.12
2022-07-28T04:18:48.949Z,9.34
2022-07-28T04:33:49.161Z,10.19
2022-07-28T04:48:49.237Z,10.98
2022-07-28T05:03:49.274Z,10.56
2022-07-28T05:18:48.825Z,10.8
2022-07-28T05:33:48.627Z,10.84
2022-07-28T05:48:49.274Z,10.56
2022-07-28T06:03:58.395Z,10.47
2022-07-28T06:18:49.138Z,11.14
2022-07-28T06:33:48.567Z,11.01
2022-07-28T06:48:48.886Z,10.2
2022-07-28T07:03:48.982Z,9.24
2022-07-28T07:18:49.031Z,9.52
2022-07-28T07:33:48.996Z,9.75
2022-07-28T07:48:48.826Z,8.91
2022-07-28T08:03:49.965Z,8.67
2022-07-28T08:18:49.029Z,9.17
2022-07-28T08:33:53.120Z,8.68
2022-07-28T08:48:48.634Z,8.13
2022-07-28T09:03:49.181Z,9.81
2022-07-28T09:18:49.286Z,9.13
2022-07-28T09:33:48.876Z,9.7
2022-07-28T09:48:48.723Z,8.99
2022-07-28T10:03:49.101Z,9.42
2022-07-28T10:18:48.651Z,8.94
2022-07-28T10:33:49.146Z,8.35
2022-07-28T10:48:48.685Z,8.62
2022-07-28T11:03:48.619Z,10.57
2022-07-28T11:18:49.026Z,9.79
2022-07-28T11:33:48.565Z,10.05
2022-07-28T11:48:48.867Z,9.9
2022-07-28T12:03:54.378Z,10.09
2022-07-28T12:18:48.509Z,9.82
2022-07-28T12:33:49.210Z,9.68
2022-07-28T12:48:49.174Z,10.26
2022-07-28T13:03:53.643Z,11.56
2022-07-28T13:18:48.928Z,11.42
2022-07-28T13:33:48.420Z,12.39
2022-07-28T13:48:57.542Z,14.23
2022-07-28T14:03:54.891Z,13.45
2022-07-28T14:18:49.169Z,14.29
2022-07-28T14:33:54.081Z,13.57
2022-07-28T14:48:48.834Z,10.78
2022-07-28T15:03:48.804Z,12.89
2022-07-28T15:18:48.942Z,10.22
2022-07-28T15:33:51.061Z,10.53
2022-07-28T15:48:48.762Z,9.86
2022-07-28T16:03:48.436Z,9.11
2022-07-28T16:18:49.039Z,10.05
2022-07-28T16:33:48.829Z,10.64
2022-07-28T16:48:48.596Z,10.42
2022-07-28T17:03:48.682Z,12.63
2022-07-28T17:18:48.772Z,11.55
2022-07-28T17:33:48.498Z,9.94
2022-07-28T17:48:49.184Z,8.92
2022-07-28T18:03:57.309Z,6.26
2022-07-28T18:18:48.633Z,5.95
2022-07-28T18:33:48.537Z,6.58
2022-07-28T18:48:52.525Z,7.66
2022-07-28T19:03:49.156Z,7.37
2022-07-28T19:18:48.572Z,7.68
2022-07-28T19:33:48.527Z,7.93
2022-07-28T19:48:48.623Z,8.85
2022-07-28T20:04:02.852Z,10.18
2022-07-28T20:18:49.059Z,4.48
2022-07-28T20:33:48.986Z,1.55
2022-07-28T20:48:49.026Z,1.44
2022-07-28T21:03:49.010Z,2.5
2022-07-28T21:18:49.059Z,1.74
2022-07-28T21:33:49.063Z,3.06
2022-07-28T21:48:49.128Z,2.74
2022-07-28T22:03:49.139Z,3.22
2022-07-28T22:18:49.135Z,3.69
2022-07-28T22:33:49.028Z,3.1
2022-07-28T22:48:49.137Z,2.69
2022-07-28T23:03:49.195Z,3.48
2022-07-28T23:18:49.179Z,2.68
2022-07-28T23:33:54.821Z,2.62
2022-07-28T23:48:48.426Z,3.01
